RYR17WR EDLV-LPPR
Flight info
| Callsign | RYR17WR |
|---|---|
| Flight time | 2h 23m |
| Altitude | 36000 |
| Route | VEBAK2R VEBAK Z283 LNO DCT RASCA DCT FAMEN/N0449F390 DCT ESTOC UT300 PON UN872 ERIGA DCT FUJTI DCT ATLEN DCT INSID T326 ASPOR ASPOR3T |
| Aircraft | B38M/M-SDE1FGHILORVWXY/HB1 |
Departure
| Time | 2026-05-09 10:02 |
|---|---|
| Airport | Weeze (Niederrhein) Airport (EDLV) |
Arrival
| Time | 2026-05-09 12:25 |
|---|---|
| Airport | Francisco de Sá Carneiro Airport (LPPR) |
| Time | Latitude | Longitude | Altitude | Speed | Heading |
|---|---|---|---|---|---|
| 2026-05-09 09:29 | 51.59919 | 6.14859 | 114 ft | 0 kts | 94° |
| 2026-05-09 09:53 | 51.59920 | 6.14825 | 112 ft | 4 kts | 98° |
| 2026-05-09 09:53 | 51.59927 | 6.14796 | 114 ft | 4 kts | 165° |
| 2026-05-09 09:53 | 51.59948 | 6.14796 | 114 ft | 4 kts | 183° |
| 2026-05-09 09:53 | 51.59975 | 6.14798 | 115 ft | 4 kts | 182° |
| 2026-05-09 09:54 | 51.60002 | 6.14800 | 113 ft | 4 kts | 182° |
| 2026-05-09 09:54 | 51.60027 | 6.14803 | 112 ft | 4 kts | 200° |
| 2026-05-09 09:54 | 51.60042 | 6.14828 | 114 ft | 4 kts | 257° |
| 2026-05-09 09:54 | 51.60044 | 6.14863 | 115 ft | 0 kts | 272° |
| 2026-05-09 09:55 | 51.60043 | 6.14867 | 115 ft | 1 kts | 272° |
| 2026-05-09 09:55 | 51.60043 | 6.14869 | 115 ft | 0 kts | 273° |
| 2026-05-09 09:57 | 51.60044 | 6.14850 | 115 ft | 4 kts | 275° |
| 2026-05-09 09:57 | 51.60047 | 6.14774 | 114 ft | 9 kts | 271° |
| 2026-05-09 09:58 | 51.60049 | 6.14647 | 112 ft | 13 kts | 270° |
| 2026-05-09 09:58 | 51.60049 | 6.14490 | 112 ft | 15 kts | 272° |
| 2026-05-09 09:58 | 51.60052 | 6.14324 | 114 ft | 16 kts | 272° |
| 2026-05-09 09:58 | 51.60056 | 6.14140 | 114 ft | 17 kts | 272° |
| 2026-05-09 09:59 | 51.60061 | 6.13945 | 116 ft | 18 kts | 272° |
| 2026-05-09 09:59 | 51.60065 | 6.13738 | 113 ft | 20 kts | 272° |
| 2026-05-09 09:59 | 51.60070 | 6.13502 | 114 ft | 22 kts | 272° |
| 2026-05-09 09:59 | 51.60075 | 6.13242 | 112 ft | 25 kts | 271° |
| 2026-05-09 10:00 | 51.60081 | 6.12952 | 110 ft | 27 kts | 273° |
| 2026-05-09 10:00 | 51.60089 | 6.12644 | 112 ft | 26 kts | 272° |
| 2026-05-09 10:00 | 51.60098 | 6.12475 | 111 ft | 9 kts | 301° |
| 2026-05-09 10:00 | 51.60156 | 6.12458 | 113 ft | 9 kts | 2° |
| 2026-05-09 10:01 | 51.60224 | 6.12462 | 114 ft | 10 kts | 1° |
| 2026-05-09 10:01 | 51.60281 | 6.12484 | 113 ft | 8 kts | 53° |
| 2026-05-09 10:01 | 51.60284 | 6.12522 | 114 ft | 0 kts | 91° |
| 2026-05-09 10:01 | 51.60284 | 6.12537 | 114 ft | 15 kts | 93° |
| 2026-05-09 10:02 | 51.60269 | 6.13181 | 114 ft | 98 kts | 91° |
| 2026-05-09 10:02 | 51.60237 | 6.14667 | 113 ft | 164 kts | 92° |
| 2026-05-09 10:02 | 51.60169 | 6.16610 | 730 ft | 179 kts | 95° |
| 2026-05-09 10:02 | 51.60115 | 6.18619 | 1608 ft | 188 kts | 90° |
| 2026-05-09 10:03 | 51.60106 | 6.20909 | 2153 ft | 223 kts | 90° |
| 2026-05-09 10:03 | 51.60075 | 6.23498 | 3054 ft | 238 kts | 92° |
| 2026-05-09 10:03 | 51.60001 | 6.26226 | 4015 ft | 250 kts | 93° |
| 2026-05-09 10:03 | 51.59921 | 6.29080 | 4907 ft | 265 kts | 93° |
| 2026-05-09 10:04 | 51.59846 | 6.32114 | 5846 ft | 273 kts | 93° |
| 2026-05-09 10:04 | 51.59762 | 6.35189 | 6889 ft | 278 kts | 93° |
| 2026-05-09 10:04 | 51.59626 | 6.38324 | 7837 ft | 282 kts | 103° |
| 2026-05-09 10:04 | 51.58862 | 6.41184 | 8824 ft | 281 kts | 129° |
| 2026-05-09 10:05 | 51.57387 | 6.43197 | 9738 ft | 280 kts | 158° |
| 2026-05-09 10:05 | 51.55492 | 6.43673 | 10525 ft | 281 kts | 189° |
| 2026-05-09 10:05 | 51.53610 | 6.42579 | 10950 ft | 298 kts | 207° |
| 2026-05-09 10:05 | 51.51745 | 6.41003 | 11349 ft | 314 kts | 208° |
| 2026-05-09 10:06 | 51.49743 | 6.39434 | 11929 ft | 322 kts | 205° |
| 2026-05-09 10:06 | 51.47717 | 6.37903 | 12689 ft | 325 kts | 205° |
| 2026-05-09 10:06 | 51.45658 | 6.36336 | 13325 ft | 330 kts | 205° |
| 2026-05-09 10:06 | 51.43572 | 6.34744 | 13954 ft | 333 kts | 205° |
| 2026-05-09 10:07 | 51.39486 | 6.31623 | 14976 ft | 338 kts | 205° |
| 2026-05-09 10:07 | 51.37370 | 6.30008 | 15538 ft | 341 kts | 206° |
| 2026-05-09 10:07 | 51.35222 | 6.28371 | 16141 ft | 344 kts | 206° |
| 2026-05-09 10:08 | 51.33048 | 6.26715 | 16702 ft | 348 kts | 206° |
| 2026-05-09 10:08 | 51.30863 | 6.25053 | 17256 ft | 351 kts | 206° |
| 2026-05-09 10:08 | 51.28638 | 6.23361 | 17798 ft | 354 kts | 206° |
| 2026-05-09 10:08 | 51.26409 | 6.21669 | 18321 ft | 357 kts | 206° |
| 2026-05-09 10:09 | 51.24150 | 6.19955 | 18768 ft | 361 kts | 206° |
| 2026-05-09 10:09 | 51.21876 | 6.18232 | 19236 ft | 362 kts | 205° |
| 2026-05-09 10:09 | 51.19631 | 6.16534 | 19679 ft | 364 kts | 205° |
| 2026-05-09 10:09 | 51.17334 | 6.14797 | 20112 ft | 366 kts | 205° |
| 2026-05-09 10:10 | 51.15021 | 6.13051 | 20488 ft | 369 kts | 205° |
| 2026-05-09 10:10 | 51.12705 | 6.11303 | 20890 ft | 372 kts | 205° |
| 2026-05-09 10:10 | 51.10362 | 6.09538 | 21309 ft | 374 kts | 204° |
| 2026-05-09 10:10 | 51.08004 | 6.07763 | 21731 ft | 375 kts | 205° |
| 2026-05-09 10:11 | 51.05629 | 6.05978 | 22036 ft | 380 kts | 205° |
| 2026-05-09 10:11 | 51.03229 | 6.04176 | 22371 ft | 383 kts | 205° |
| 2026-05-09 10:11 | 51.00816 | 6.02366 | 22759 ft | 384 kts | 205° |
| 2026-05-09 10:11 | 50.98384 | 6.00545 | 23091 ft | 387 kts | 205° |
| 2026-05-09 10:12 | 50.95942 | 5.98716 | 23408 ft | 390 kts | 205° |
| 2026-05-09 10:12 | 50.93478 | 5.96876 | 23704 ft | 393 kts | 205° |
| 2026-05-09 10:12 | 50.91010 | 5.95034 | 23986 ft | 394 kts | 205° |
| 2026-05-09 10:12 | 50.88522 | 5.93178 | 24259 ft | 396 kts | 205° |
| 2026-05-09 10:13 | 50.86027 | 5.91320 | 24518 ft | 398 kts | 205° |
| 2026-05-09 10:13 | 50.83516 | 5.89452 | 24782 ft | 399 kts | 205° |
| 2026-05-09 10:13 | 50.80998 | 5.87582 | 25046 ft | 400 kts | 205° |
| 2026-05-09 10:13 | 50.78473 | 5.85708 | 25292 ft | 402 kts | 205° |
| 2026-05-09 10:14 | 50.75931 | 5.83824 | 25516 ft | 404 kts | 205° |
| 2026-05-09 10:14 | 50.73382 | 5.81937 | 25762 ft | 405 kts | 205° |
| 2026-05-09 10:14 | 50.70865 | 5.80076 | 26001 ft | 406 kts | 205° |
| 2026-05-09 10:14 | 50.68314 | 5.78192 | 26228 ft | 407 kts | 205° |
| 2026-05-09 10:15 | 50.65745 | 5.76298 | 26440 ft | 409 kts | 205° |
| 2026-05-09 10:15 | 50.63160 | 5.74393 | 26704 ft | 410 kts | 205° |
| 2026-05-09 10:15 | 50.60570 | 5.72474 | 26928 ft | 411 kts | 207° |
| 2026-05-09 10:15 | 50.58239 | 5.69895 | 27146 ft | 412 kts | 225° |
| 2026-05-09 10:16 | 50.56344 | 5.66513 | 27340 ft | 414 kts | 229° |
| 2026-05-09 10:16 | 50.54472 | 5.63055 | 27529 ft | 415 kts | 230° |
| 2026-05-09 10:16 | 50.52615 | 5.59581 | 27732 ft | 417 kts | 230° |
| 2026-05-09 10:16 | 50.50756 | 5.56071 | 27924 ft | 418 kts | 230° |
| 2026-05-09 10:17 | 50.48913 | 5.52579 | 28225 ft | 416 kts | 230° |
| 2026-05-09 10:17 | 50.47068 | 5.49075 | 28403 ft | 417 kts | 230° |
| 2026-05-09 10:17 | 50.45212 | 5.45556 | 28525 ft | 419 kts | 230° |
| 2026-05-09 10:17 | 50.43350 | 5.42030 | 28768 ft | 419 kts | 229° |
| 2026-05-09 10:18 | 50.41491 | 5.38511 | 28899 ft | 421 kts | 230° |
| 2026-05-09 10:18 | 50.39613 | 5.34963 | 29022 ft | 422 kts | 229° |
| 2026-05-09 10:18 | 50.37736 | 5.31424 | 29207 ft | 422 kts | 229° |
| 2026-05-09 10:18 | 50.36003 | 5.28159 | 29353 ft | 423 kts | 229° |
| 2026-05-09 10:20 | 50.35504 | 5.27220 | 29370 ft | 424 kts | 230° |
| 2026-05-09 10:21 | 50.31756 | 5.20175 | 29664 ft | 425 kts | 229° |
| 2026-05-09 10:21 | 50.27958 | 5.13057 | 29860 ft | 427 kts | 229° |
| 2026-05-09 10:21 | 50.26051 | 5.09491 | 30019 ft | 427 kts | 229° |
| 2026-05-09 10:22 | 50.24144 | 5.05927 | 30152 ft | 428 kts | 229° |
| 2026-05-09 10:22 | 50.22229 | 5.02354 | 30271 ft | 429 kts | 229° |
| 2026-05-09 10:22 | 50.20310 | 4.98781 | 30416 ft | 429 kts | 229° |
| 2026-05-09 10:22 | 50.18391 | 4.95211 | 30531 ft | 430 kts | 229° |
| 2026-05-09 10:23 | 50.16474 | 4.91648 | 30663 ft | 431 kts | 229° |
| 2026-05-09 10:23 | 50.14538 | 4.88056 | 30790 ft | 432 kts | 229° |
| 2026-05-09 10:23 | 50.12603 | 4.84473 | 30925 ft | 433 kts | 229° |
| 2026-05-09 10:23 | 50.10660 | 4.80880 | 31049 ft | 434 kts | 229° |
| 2026-05-09 10:24 | 50.08715 | 4.77286 | 31196 ft | 434 kts | 229° |
| 2026-05-09 10:24 | 50.06763 | 4.73686 | 31352 ft | 435 kts | 229° |
| 2026-05-09 10:24 | 50.04807 | 4.70082 | 31510 ft | 436 kts | 229° |
| 2026-05-09 10:24 | 50.02845 | 4.66473 | 31665 ft | 437 kts | 229° |
| 2026-05-09 10:25 | 50.00912 | 4.62922 | 31822 ft | 438 kts | 229° |
| 2026-05-09 10:25 | 49.98937 | 4.59299 | 31989 ft | 439 kts | 229° |
| 2026-05-09 10:25 | 49.97062 | 4.55544 | 32152 ft | 441 kts | 238° |
| 2026-05-09 10:25 | 49.95549 | 4.51400 | 32368 ft | 442 kts | 238° |
| 2026-05-09 10:26 | 49.93991 | 4.47261 | 32528 ft | 444 kts | 238° |
| 2026-05-09 10:26 | 49.92433 | 4.43118 | 32732 ft | 445 kts | 238° |
| 2026-05-09 10:26 | 49.90872 | 4.38964 | 32933 ft | 446 kts | 238° |
| 2026-05-09 10:26 | 49.89309 | 4.34807 | 33195 ft | 446 kts | 238° |
| 2026-05-09 10:27 | 49.87752 | 4.30674 | 33481 ft | 445 kts | 238° |
| 2026-05-09 10:27 | 49.86178 | 4.26502 | 33786 ft | 445 kts | 238° |
| 2026-05-09 10:27 | 49.84614 | 4.22364 | 34112 ft | 444 kts | 238° |
| 2026-05-09 10:27 | 49.83050 | 4.18230 | 34388 ft | 443 kts | 238° |
| 2026-05-09 10:28 | 49.81492 | 4.14119 | 34665 ft | 442 kts | 238° |
| 2026-05-09 10:28 | 49.79934 | 4.10016 | 34933 ft | 441 kts | 238° |
| 2026-05-09 10:28 | 49.78398 | 4.05977 | 35199 ft | 440 kts | 238° |
| 2026-05-09 10:28 | 49.76843 | 4.01893 | 35463 ft | 439 kts | 238° |
| 2026-05-09 10:29 | 49.75294 | 3.97833 | 35701 ft | 438 kts | 238° |
| 2026-05-09 10:29 | 49.73753 | 3.93798 | 35947 ft | 437 kts | 238° |
| 2026-05-09 10:29 | 49.72206 | 3.89754 | 36180 ft | 437 kts | 238° |
| 2026-05-09 10:29 | 49.70662 | 3.85725 | 36390 ft | 436 kts | 238° |
| 2026-05-09 10:30 | 49.69124 | 3.81719 | 36618 ft | 435 kts | 238° |
| 2026-05-09 10:30 | 49.67584 | 3.77712 | 36820 ft | 434 kts | 238° |
| 2026-05-09 10:30 | 49.66039 | 3.73698 | 37009 ft | 434 kts | 238° |
| 2026-05-09 10:30 | 49.64499 | 3.69703 | 37203 ft | 433 kts | 238° |
| 2026-05-09 10:31 | 49.62959 | 3.65715 | 37383 ft | 432 kts | 238° |
| 2026-05-09 10:31 | 49.61428 | 3.61756 | 37562 ft | 432 kts | 238° |
| 2026-05-09 10:31 | 49.59889 | 3.57783 | 37747 ft | 431 kts | 237° |
| 2026-05-09 10:31 | 49.58353 | 3.53822 | 37921 ft | 430 kts | 237° |
| 2026-05-09 10:32 | 49.56820 | 3.49876 | 38067 ft | 430 kts | 237° |
| 2026-05-09 10:32 | 49.53740 | 3.41969 | 38035 ft | 428 kts | 237° |
| 2026-05-09 10:33 | 49.50675 | 3.34119 | 38052 ft | 429 kts | 237° |
| 2026-05-09 10:33 | 49.47605 | 3.26280 | 38047 ft | 428 kts | 237° |
| 2026-05-09 10:34 | 49.44530 | 3.18454 | 38039 ft | 427 kts | 237° |
| 2026-05-09 10:34 | 49.39910 | 3.06737 | 38040 ft | 427 kts | 237° |
| 2026-05-09 10:35 | 49.36825 | 2.98944 | 38039 ft | 427 kts | 237° |
| 2026-05-09 10:35 | 49.34260 | 2.92480 | 38034 ft | 427 kts | 237° |
| 2026-05-09 10:36 | 49.31163 | 2.84697 | 38031 ft | 427 kts | 237° |
| 2026-05-09 10:36 | 49.28058 | 2.76919 | 38027 ft | 427 kts | 237° |
| 2026-05-09 10:37 | 49.24953 | 2.69161 | 38030 ft | 428 kts | 237° |
| 2026-05-09 10:37 | 49.21848 | 2.61425 | 38046 ft | 428 kts | 236° |
| 2026-05-09 10:38 | 49.18727 | 2.53667 | 38042 ft | 428 kts | 236° |
| 2026-05-09 10:38 | 49.15602 | 2.45919 | 38037 ft | 428 kts | 236° |
| 2026-05-09 10:39 | 49.13006 | 2.37769 | 38021 ft | 432 kts | 256° |
| 2026-05-09 10:39 | 49.12022 | 2.28697 | 38017 ft | 436 kts | 258° |
| 2026-05-09 10:40 | 49.11127 | 2.19612 | 38036 ft | 436 kts | 258° |
| 2026-05-09 10:40 | 49.10258 | 2.10437 | 38014 ft | 436 kts | 258° |
| 2026-05-09 10:41 | 49.08909 | 2.01523 | 38007 ft | 427 kts | 242° |
| 2026-05-09 10:41 | 49.06471 | 1.93238 | 37988 ft | 429 kts | 243° |
| 2026-05-09 10:42 | 49.04013 | 1.84975 | 38013 ft | 427 kts | 243° |
| 2026-05-09 10:42 | 49.01532 | 1.76755 | 38008 ft | 427 kts | 243° |
| 2026-05-09 10:43 | 48.99042 | 1.68540 | 38002 ft | 427 kts | 243° |
| 2026-05-09 10:43 | 48.96548 | 1.60339 | 38019 ft | 427 kts | 243° |
| 2026-05-09 10:44 | 48.94054 | 1.52164 | 38013 ft | 427 kts | 243° |
| 2026-05-09 10:44 | 48.91548 | 1.43979 | 38018 ft | 427 kts | 242° |
| 2026-05-09 10:46 | 48.85262 | 1.23567 | 38015 ft | 427 kts | 242° |
| 2026-05-09 10:46 | 48.82736 | 1.15410 | 38016 ft | 427 kts | 242° |
| 2026-05-09 10:47 | 48.80200 | 1.07249 | 38014 ft | 427 kts | 242° |
| 2026-05-09 10:47 | 48.77662 | 0.99109 | 38009 ft | 427 kts | 242° |
| 2026-05-09 10:48 | 48.75117 | 0.90964 | 38005 ft | 427 kts | 242° |
| 2026-05-09 10:48 | 48.72157 | 0.83208 | 38022 ft | 426 kts | 236° |
| 2026-05-09 10:49 | 48.69080 | 0.75577 | 38003 ft | 425 kts | 236° |
| 2026-05-09 10:49 | 48.65984 | 0.67943 | 37995 ft | 425 kts | 236° |
| 2026-05-09 10:50 | 48.62886 | 0.60329 | 37995 ft | 424 kts | 236° |
| 2026-05-09 10:50 | 48.59799 | 0.52764 | 37999 ft | 424 kts | 236° |
| 2026-05-09 10:51 | 48.56698 | 0.45187 | 37995 ft | 424 kts | 236° |
| 2026-05-09 10:51 | 48.53587 | 0.37606 | 37992 ft | 423 kts | 236° |
| 2026-05-09 10:52 | 48.50482 | 0.30063 | 37990 ft | 423 kts | 236° |
| 2026-05-09 10:52 | 48.47376 | 0.22536 | 37992 ft | 423 kts | 235° |
| 2026-05-09 10:53 | 48.44262 | 0.15011 | 37991 ft | 423 kts | 235° |
| 2026-05-09 10:53 | 48.41143 | 0.07498 | 37990 ft | 423 kts | 235° |
| 2026-05-09 10:54 | 48.38022 | -0.00006 | 37989 ft | 423 kts | 235° |
| 2026-05-09 10:54 | 48.34700 | -0.07252 | 38003 ft | 421 kts | 230° |
| 2026-05-09 10:55 | 48.31235 | -0.14277 | 37977 ft | 421 kts | 231° |
| 2026-05-09 10:55 | 48.27760 | -0.21379 | 37977 ft | 422 kts | 231° |
| 2026-05-09 10:56 | 48.24229 | -0.28397 | 37975 ft | 421 kts | 230° |
| 2026-05-09 10:56 | 48.20669 | -0.35369 | 37970 ft | 421 kts | 230° |
| 2026-05-09 10:57 | 48.17120 | -0.42313 | 37978 ft | 421 kts | 230° |
| 2026-05-09 10:57 | 48.13557 | -0.49266 | 37983 ft | 421 kts | 230° |
| 2026-05-09 10:58 | 48.09986 | -0.56218 | 37989 ft | 421 kts | 230° |
| 2026-05-09 10:58 | 48.06417 | -0.63148 | 37995 ft | 421 kts | 230° |
| 2026-05-09 10:59 | 48.02849 | -0.70058 | 37992 ft | 421 kts | 230° |
| 2026-05-09 10:59 | 47.99266 | -0.76979 | 37987 ft | 421 kts | 230° |
| 2026-05-09 11:00 | 47.95674 | -0.83901 | 37991 ft | 422 kts | 230° |
| 2026-05-09 11:00 | 47.92075 | -0.90817 | 37986 ft | 422 kts | 230° |
| 2026-05-09 11:01 | 47.88483 | -0.97703 | 37956 ft | 422 kts | 229° |
| 2026-05-09 11:01 | 47.84870 | -1.04613 | 37954 ft | 422 kts | 229° |
| 2026-05-09 11:02 | 47.81258 | -1.11502 | 37951 ft | 422 kts | 229° |
| 2026-05-09 11:02 | 47.77666 | -1.18336 | 37952 ft | 421 kts | 229° |
| 2026-05-09 11:03 | 47.74046 | -1.25206 | 37950 ft | 420 kts | 229° |
| 2026-05-09 11:03 | 47.70431 | -1.32049 | 37951 ft | 421 kts | 229° |
| 2026-05-09 11:04 | 47.66833 | -1.38844 | 37954 ft | 421 kts | 229° |
| 2026-05-09 11:04 | 47.63211 | -1.45670 | 37956 ft | 421 kts | 229° |
| 2026-05-09 11:05 | 47.59521 | -1.52412 | 37948 ft | 419 kts | 225° |
| 2026-05-09 11:05 | 47.55602 | -1.58811 | 37949 ft | 420 kts | 226° |
| 2026-05-09 11:06 | 47.51702 | -1.65250 | 37951 ft | 420 kts | 226° |
| 2026-05-09 11:06 | 47.47798 | -1.71695 | 37954 ft | 422 kts | 226° |
| 2026-05-09 11:07 | 47.43879 | -1.78152 | 37945 ft | 422 kts | 226° |
| 2026-05-09 11:07 | 47.39966 | -1.84584 | 37947 ft | 422 kts | 226° |
| 2026-05-09 11:08 | 47.36034 | -1.91021 | 37937 ft | 421 kts | 224° |
| 2026-05-09 11:08 | 47.33793 | -1.93747 | 37927 ft | 416 kts | 210° |
| 2026-05-09 11:08 | 47.31324 | -1.95971 | 37936 ft | 418 kts | 211° |
| 2026-05-09 11:09 | 47.26382 | -2.00494 | 37944 ft | 418 kts | 210° |
| 2026-05-09 11:09 | 47.21450 | -2.04917 | 37937 ft | 418 kts | 210° |
| 2026-05-09 11:10 | 47.16472 | -2.09356 | 37943 ft | 419 kts | 210° |
| 2026-05-09 11:10 | 47.11496 | -2.13782 | 37931 ft | 417 kts | 210° |
| 2026-05-09 11:11 | 47.06501 | -2.18214 | 37937 ft | 417 kts | 210° |
| 2026-05-09 11:11 | 47.01568 | -2.22582 | 37933 ft | 417 kts | 210° |
| 2026-05-09 11:12 | 46.96799 | -2.26796 | 37921 ft | 417 kts | 210° |
| 2026-05-09 11:12 | 46.91830 | -2.31178 | 37931 ft | 416 kts | 210° |
| 2026-05-09 11:13 | 46.86869 | -2.35544 | 37930 ft | 416 kts | 210° |
| 2026-05-09 11:13 | 46.81910 | -2.39903 | 37930 ft | 416 kts | 210° |
| 2026-05-09 11:14 | 46.76953 | -2.44251 | 37955 ft | 416 kts | 210° |
| 2026-05-09 11:14 | 46.71980 | -2.48603 | 37938 ft | 417 kts | 210° |
| 2026-05-09 11:15 | 46.67002 | -2.52951 | 37931 ft | 417 kts | 210° |
| 2026-05-09 11:15 | 46.62015 | -2.57297 | 37935 ft | 417 kts | 210° |
| 2026-05-09 11:16 | 46.57108 | -2.61564 | 37929 ft | 417 kts | 210° |
| 2026-05-09 11:16 | 46.52155 | -2.65862 | 37920 ft | 417 kts | 210° |
| 2026-05-09 11:17 | 46.47168 | -2.70180 | 37923 ft | 417 kts | 210° |
| 2026-05-09 11:17 | 46.42177 | -2.74492 | 37923 ft | 417 kts | 210° |
| 2026-05-09 11:18 | 46.37188 | -2.78793 | 37915 ft | 417 kts | 210° |
| 2026-05-09 11:18 | 46.32204 | -2.83082 | 37924 ft | 418 kts | 210° |
| 2026-05-09 11:19 | 46.28047 | -2.86651 | 37916 ft | 417 kts | 210° |
| 2026-05-09 11:19 | 46.23461 | -2.91781 | 37912 ft | 419 kts | 218° |
| 2026-05-09 11:20 | 46.18999 | -2.97202 | 37908 ft | 419 kts | 219° |
| 2026-05-09 11:20 | 46.14556 | -3.02616 | 37909 ft | 419 kts | 219° |
| 2026-05-09 11:21 | 46.10095 | -3.08043 | 37900 ft | 418 kts | 219° |
| 2026-05-09 11:21 | 46.05644 | -3.13447 | 37905 ft | 418 kts | 219° |
| 2026-05-09 11:22 | 46.01385 | -3.18606 | 37911 ft | 419 kts | 218° |
| 2026-05-09 11:22 | 45.96925 | -3.23997 | 37900 ft | 420 kts | 218° |
| 2026-05-09 11:23 | 45.92460 | -3.29384 | 37897 ft | 419 kts | 218° |
| 2026-05-09 11:23 | 45.87988 | -3.34766 | 37888 ft | 418 kts | 218° |
| 2026-05-09 11:24 | 45.83525 | -3.40126 | 37889 ft | 418 kts | 218° |
| 2026-05-09 11:24 | 45.79057 | -3.45480 | 37889 ft | 418 kts | 218° |
| 2026-05-09 11:25 | 45.74594 | -3.50817 | 37884 ft | 418 kts | 218° |
| 2026-05-09 11:25 | 45.70120 | -3.56156 | 37894 ft | 419 kts | 218° |
| 2026-05-09 11:26 | 45.65651 | -3.61477 | 37878 ft | 417 kts | 218° |
| 2026-05-09 11:26 | 45.61214 | -3.66748 | 37875 ft | 418 kts | 218° |
| 2026-05-09 11:27 | 45.56751 | -3.72039 | 37875 ft | 418 kts | 218° |
| 2026-05-09 11:27 | 45.52278 | -3.77332 | 37873 ft | 418 kts | 218° |
| 2026-05-09 11:28 | 45.47805 | -3.82612 | 37863 ft | 416 kts | 218° |
| 2026-05-09 11:28 | 45.43347 | -3.87863 | 37871 ft | 416 kts | 218° |
| 2026-05-09 11:29 | 45.38888 | -3.93105 | 37862 ft | 418 kts | 218° |
| 2026-05-09 11:29 | 45.34394 | -3.98376 | 37858 ft | 418 kts | 217° |
| 2026-05-09 11:30 | 45.29684 | -4.03889 | 37859 ft | 417 kts | 217° |
| 2026-05-09 11:30 | 45.25228 | -4.09093 | 37855 ft | 414 kts | 217° |
| 2026-05-09 11:31 | 45.20768 | -4.14292 | 37862 ft | 415 kts | 217° |
| 2026-05-09 11:31 | 45.16315 | -4.19471 | 37859 ft | 415 kts | 217° |
| 2026-05-09 11:32 | 45.11847 | -4.24657 | 37861 ft | 415 kts | 217° |
| 2026-05-09 11:32 | 45.07380 | -4.29830 | 37846 ft | 416 kts | 217° |
| 2026-05-09 11:33 | 45.02899 | -4.35010 | 37855 ft | 416 kts | 217° |
| 2026-05-09 11:33 | 44.96178 | -4.42757 | 37853 ft | 416 kts | 217° |
| 2026-05-09 11:34 | 44.91697 | -4.47910 | 37847 ft | 416 kts | 217° |
| 2026-05-09 11:34 | 44.87197 | -4.53073 | 37853 ft | 418 kts | 218° |
| 2026-05-09 11:35 | 44.82684 | -4.58239 | 37865 ft | 418 kts | 217° |
| 2026-05-09 11:35 | 44.78156 | -4.63414 | 37844 ft | 420 kts | 217° |
| 2026-05-09 11:36 | 44.73612 | -4.68595 | 37846 ft | 420 kts | 217° |
| 2026-05-09 11:36 | 44.69071 | -4.73762 | 37840 ft | 420 kts | 217° |
| 2026-05-09 11:37 | 44.64524 | -4.78927 | 37843 ft | 420 kts | 217° |
| 2026-05-09 11:37 | 44.60015 | -4.84039 | 37836 ft | 420 kts | 217° |
| 2026-05-09 11:38 | 44.55465 | -4.89188 | 37830 ft | 420 kts | 217° |
| 2026-05-09 11:38 | 44.50908 | -4.94311 | 37836 ft | 420 kts | 214° |
| 2026-05-09 11:39 | 44.46147 | -4.99039 | 37841 ft | 421 kts | 214° |
| 2026-05-09 11:40 | 44.39011 | -5.06197 | 37833 ft | 421 kts | 214° |
| 2026-05-09 11:40 | 44.34254 | -5.10968 | 37828 ft | 421 kts | 214° |
| 2026-05-09 11:41 | 44.29500 | -5.15727 | 37827 ft | 421 kts | 214° |
| 2026-05-09 11:41 | 44.24739 | -5.20482 | 37827 ft | 421 kts | 214° |
| 2026-05-09 11:42 | 44.19985 | -5.25222 | 37825 ft | 421 kts | 214° |
| 2026-05-09 11:42 | 44.15214 | -5.29968 | 37827 ft | 421 kts | 214° |
| 2026-05-09 11:43 | 44.10447 | -5.34701 | 37841 ft | 422 kts | 214° |
| 2026-05-09 11:43 | 44.05691 | -5.39414 | 37822 ft | 422 kts | 214° |
| 2026-05-09 11:44 | 44.00913 | -5.44138 | 37820 ft | 422 kts | 214° |
| 2026-05-09 11:44 | 43.96126 | -5.48862 | 37812 ft | 422 kts | 214° |
| 2026-05-09 11:45 | 43.91335 | -5.53580 | 37815 ft | 422 kts | 214° |
| 2026-05-09 11:45 | 43.86545 | -5.58289 | 37813 ft | 422 kts | 214° |
| 2026-05-09 11:46 | 43.81754 | -5.62988 | 37817 ft | 422 kts | 214° |
| 2026-05-09 11:46 | 43.76977 | -5.67664 | 37814 ft | 421 kts | 214° |
| 2026-05-09 11:47 | 43.72186 | -5.72344 | 37822 ft | 422 kts | 214° |
| 2026-05-09 11:47 | 43.67395 | -5.77017 | 37810 ft | 425 kts | 214° |
| 2026-05-09 11:48 | 43.62558 | -5.81723 | 37812 ft | 425 kts | 214° |
| 2026-05-09 11:48 | 43.57732 | -5.86410 | 37806 ft | 425 kts | 214° |
| 2026-05-09 11:49 | 43.52890 | -5.91102 | 37802 ft | 425 kts | 214° |
| 2026-05-09 11:49 | 43.48052 | -5.95782 | 37803 ft | 425 kts | 214° |
| 2026-05-09 11:50 | 43.43214 | -6.00452 | 37800 ft | 422 kts | 214° |
| 2026-05-09 11:50 | 43.39226 | -6.04295 | 37807 ft | 422 kts | 214° |
| 2026-05-09 11:51 | 43.33631 | -6.09676 | 37811 ft | 422 kts | 214° |
| 2026-05-09 11:51 | 43.29578 | -6.13565 | 37807 ft | 426 kts | 214° |
| 2026-05-09 11:52 | 43.24718 | -6.18222 | 37820 ft | 425 kts | 214° |
| 2026-05-09 11:52 | 43.19884 | -6.22844 | 37800 ft | 424 kts | 214° |
| 2026-05-09 11:53 | 43.15070 | -6.27437 | 37818 ft | 425 kts | 214° |
| 2026-05-09 11:53 | 43.10230 | -6.32047 | 37819 ft | 424 kts | 214° |
| 2026-05-09 11:54 | 43.05382 | -6.36655 | 37786 ft | 423 kts | 214° |
| 2026-05-09 11:54 | 43.00525 | -6.41262 | 37812 ft | 424 kts | 214° |
| 2026-05-09 11:55 | 42.95697 | -6.45834 | 37825 ft | 424 kts | 214° |
| 2026-05-09 11:56 | 42.81206 | -6.59500 | 37808 ft | 422 kts | 213° |
| 2026-05-09 11:57 | 42.76378 | -6.64036 | 37807 ft | 422 kts | 213° |
| 2026-05-09 11:57 | 42.71579 | -6.68536 | 37808 ft | 422 kts | 213° |
| 2026-05-09 11:58 | 42.66751 | -6.73053 | 37106 ft | 420 kts | 213° |
| 2026-05-09 11:58 | 42.64350 | -6.75298 | 36584 ft | 416 kts | 213° |
| 2026-05-09 11:58 | 42.61983 | -6.77507 | 36228 ft | 409 kts | 213° |
| 2026-05-09 11:58 | 42.59653 | -6.79680 | 35770 ft | 405 kts | 212° |
| 2026-05-09 11:59 | 42.57299 | -6.81873 | 35089 ft | 406 kts | 212° |
| 2026-05-09 11:59 | 42.54990 | -6.84022 | 34336 ft | 410 kts | 212° |
| 2026-05-09 11:59 | 42.52593 | -6.86254 | 33558 ft | 414 kts | 212° |
| 2026-05-09 11:59 | 42.50208 | -6.88471 | 32711 ft | 417 kts | 211° |
| 2026-05-09 12:00 | 42.47813 | -6.90695 | 32025 ft | 416 kts | 211° |
| 2026-05-09 12:00 | 42.45469 | -6.92870 | 31543 ft | 411 kts | 211° |
| 2026-05-09 12:00 | 42.43133 | -6.95037 | 31105 ft | 404 kts | 211° |
| 2026-05-09 12:00 | 42.40818 | -6.97182 | 30623 ft | 400 kts | 211° |
| 2026-05-09 12:01 | 42.38527 | -6.99302 | 30097 ft | 398 kts | 211° |
| 2026-05-09 12:01 | 42.36261 | -7.01397 | 29519 ft | 395 kts | 211° |
| 2026-05-09 12:01 | 42.34080 | -7.03575 | 28763 ft | 398 kts | 219° |
| 2026-05-09 12:01 | 42.32281 | -7.06496 | 27733 ft | 412 kts | 233° |
| 2026-05-09 12:02 | 42.30759 | -7.09825 | 26765 ft | 419 kts | 234° |
| 2026-05-09 12:02 | 42.29211 | -7.13185 | 25849 ft | 425 kts | 234° |
| 2026-05-09 12:02 | 42.27649 | -7.16580 | 25227 ft | 423 kts | 234° |
| 2026-05-09 12:02 | 42.26107 | -7.19937 | 24737 ft | 418 kts | 234° |
| 2026-05-09 12:03 | 42.24588 | -7.23244 | 24261 ft | 413 kts | 234° |
| 2026-05-09 12:03 | 42.23075 | -7.26528 | 23719 ft | 410 kts | 234° |
| 2026-05-09 12:03 | 42.21576 | -7.29777 | 23176 ft | 407 kts | 234° |
| 2026-05-09 12:03 | 42.20086 | -7.33004 | 22610 ft | 403 kts | 234° |
| 2026-05-09 12:04 | 42.18631 | -7.36153 | 22108 ft | 398 kts | 234° |
| 2026-05-09 12:04 | 42.17176 | -7.39298 | 21640 ft | 393 kts | 234° |
| 2026-05-09 12:04 | 42.15737 | -7.42406 | 21174 ft | 388 kts | 234° |
| 2026-05-09 12:04 | 42.14319 | -7.45466 | 20727 ft | 383 kts | 234° |
| 2026-05-09 12:05 | 42.12917 | -7.48487 | 20279 ft | 378 kts | 234° |
| 2026-05-09 12:05 | 42.11526 | -7.51483 | 19845 ft | 374 kts | 234° |
| 2026-05-09 12:05 | 42.10153 | -7.54435 | 19417 ft | 370 kts | 233° |
| 2026-05-09 12:05 | 42.08797 | -7.57348 | 19004 ft | 367 kts | 234° |
| 2026-05-09 12:06 | 42.07449 | -7.60244 | 18600 ft | 364 kts | 234° |
| 2026-05-09 12:06 | 42.06106 | -7.63121 | 18194 ft | 361 kts | 234° |
| 2026-05-09 12:06 | 42.04758 | -7.66007 | 17737 ft | 358 kts | 234° |
| 2026-05-09 12:06 | 42.03455 | -7.68795 | 17323 ft | 355 kts | 234° |
| 2026-05-09 12:07 | 42.02148 | -7.71590 | 16927 ft | 351 kts | 234° |
| 2026-05-09 12:07 | 42.00857 | -7.74346 | 16551 ft | 347 kts | 234° |
| 2026-05-09 12:07 | 41.99578 | -7.77076 | 16150 ft | 343 kts | 234° |
| 2026-05-09 12:07 | 41.98311 | -7.79777 | 15782 ft | 340 kts | 233° |
| 2026-05-09 12:08 | 41.97055 | -7.82452 | 15405 ft | 336 kts | 233° |
| 2026-05-09 12:08 | 41.95816 | -7.85088 | 15016 ft | 334 kts | 233° |
| 2026-05-09 12:08 | 41.94580 | -7.87714 | 14655 ft | 331 kts | 233° |
| 2026-05-09 12:08 | 41.93340 | -7.90348 | 14289 ft | 328 kts | 233° |
| 2026-05-09 12:09 | 41.92138 | -7.92900 | 13933 ft | 326 kts | 232° |
| 2026-05-09 12:09 | 41.90928 | -7.95467 | 13566 ft | 324 kts | 232° |
| 2026-05-09 12:09 | 41.89726 | -7.98006 | 13153 ft | 321 kts | 233° |
| 2026-05-09 12:10 | 41.86198 | -8.05462 | 12070 ft | 310 kts | 231° |
| 2026-05-09 12:10 | 41.85040 | -8.07904 | 11748 ft | 312 kts | 232° |
| 2026-05-09 12:10 | 41.83863 | -8.10371 | 11374 ft | 316 kts | 231° |
| 2026-05-09 12:11 | 41.82661 | -8.12829 | 10952 ft | 316 kts | 232° |
| 2026-05-09 12:11 | 41.81461 | -8.15283 | 10605 ft | 313 kts | 231° |
| 2026-05-09 12:11 | 41.80276 | -8.17710 | 10374 ft | 307 kts | 231° |
| 2026-05-09 12:11 | 41.79121 | -8.20074 | 10226 ft | 299 kts | 230° |
| 2026-05-09 12:12 | 41.77998 | -8.22374 | 10103 ft | 291 kts | 231° |
| 2026-05-09 12:12 | 41.76899 | -8.24619 | 9942 ft | 285 kts | 230° |
| 2026-05-09 12:12 | 41.75828 | -8.26805 | 9770 ft | 278 kts | 230° |
| 2026-05-09 12:12 | 41.74772 | -8.28952 | 9513 ft | 275 kts | 230° |
| 2026-05-09 12:13 | 41.73721 | -8.31088 | 9187 ft | 274 kts | 230° |
| 2026-05-09 12:13 | 41.72676 | -8.33213 | 8885 ft | 272 kts | 231° |
| 2026-05-09 12:13 | 41.71642 | -8.35316 | 8611 ft | 268 kts | 231° |
| 2026-05-09 12:13 | 41.70620 | -8.37391 | 8338 ft | 266 kts | 230° |
| 2026-05-09 12:14 | 41.69606 | -8.39450 | 8063 ft | 264 kts | 231° |
| 2026-05-09 12:14 | 41.68604 | -8.41481 | 7770 ft | 261 kts | 231° |
| 2026-05-09 12:14 | 41.67612 | -8.43491 | 7514 ft | 258 kts | 230° |
| 2026-05-09 12:14 | 41.66627 | -8.45486 | 7223 ft | 256 kts | 230° |
| 2026-05-09 12:15 | 41.65654 | -8.47460 | 6998 ft | 252 kts | 231° |
| 2026-05-09 12:15 | 41.64680 | -8.49426 | 6699 ft | 257 kts | 230° |
| 2026-05-09 12:15 | 41.63677 | -8.51445 | 6409 ft | 264 kts | 231° |
| 2026-05-09 12:15 | 41.62666 | -8.53494 | 6181 ft | 262 kts | 231° |
| 2026-05-09 12:16 | 41.61670 | -8.55508 | 6059 ft | 257 kts | 230° |
| 2026-05-09 12:16 | 41.60690 | -8.57483 | 5901 ft | 253 kts | 230° |
| 2026-05-09 12:16 | 41.59741 | -8.59397 | 5731 ft | 248 kts | 230° |
| 2026-05-09 12:16 | 41.58794 | -8.61307 | 5479 ft | 245 kts | 230° |
| 2026-05-09 12:17 | 41.57857 | -8.63193 | 5262 ft | 241 kts | 230° |
| 2026-05-09 12:17 | 41.56937 | -8.65044 | 5024 ft | 238 kts | 230° |
| 2026-05-09 12:17 | 41.56028 | -8.66873 | 4798 ft | 236 kts | 230° |
| 2026-05-09 12:17 | 41.55132 | -8.68674 | 4640 ft | 230 kts | 230° |
| 2026-05-09 12:18 | 41.54262 | -8.70422 | 4516 ft | 222 kts | 230° |
| 2026-05-09 12:18 | 41.53417 | -8.72107 | 4414 ft | 214 kts | 230° |
| 2026-05-09 12:18 | 41.52546 | -8.73695 | 4292 ft | 208 kts | 217° |
| 2026-05-09 12:18 | 41.51319 | -8.74573 | 4153 ft | 198 kts | 187° |
| 2026-05-09 12:19 | 41.49958 | -8.74608 | 4065 ft | 197 kts | 173° |
| 2026-05-09 12:19 | 41.48598 | -8.74346 | 4022 ft | 198 kts | 170° |
| 2026-05-09 12:19 | 41.47243 | -8.74018 | 3979 ft | 199 kts | 169° |
| 2026-05-09 12:19 | 41.45894 | -8.73670 | 3779 ft | 193 kts | 168° |
| 2026-05-09 12:20 | 41.44605 | -8.73330 | 3531 ft | 186 kts | 168° |
| 2026-05-09 12:20 | 41.43360 | -8.73003 | 3304 ft | 179 kts | 169° |
| 2026-05-09 12:20 | 41.42163 | -8.72687 | 3084 ft | 170 kts | 169° |
| 2026-05-09 12:20 | 41.41045 | -8.72392 | 2878 ft | 161 kts | 169° |
| 2026-05-09 12:21 | 41.39953 | -8.72105 | 2687 ft | 156 kts | 169° |
| 2026-05-09 12:21 | 41.38894 | -8.71826 | 2502 ft | 155 kts | 169° |
| 2026-05-09 12:21 | 41.37835 | -8.71549 | 2285 ft | 156 kts | 168° |
| 2026-05-09 12:21 | 41.36774 | -8.71269 | 2100 ft | 158 kts | 168° |
| 2026-05-09 12:22 | 41.35681 | -8.70981 | 1911 ft | 159 kts | 168° |
| 2026-05-09 12:22 | 41.34601 | -8.70699 | 1731 ft | 161 kts | 167° |
| 2026-05-09 12:22 | 41.33504 | -8.70408 | 1514 ft | 160 kts | 167° |
| 2026-05-09 12:22 | 41.32408 | -8.70121 | 1347 ft | 159 kts | 168° |
| 2026-05-09 12:23 | 41.31362 | -8.69845 | 1175 ft | 149 kts | 168° |
| 2026-05-09 12:23 | 41.30362 | -8.69582 | 990 ft | 145 kts | 168° |
| 2026-05-09 12:23 | 41.29377 | -8.69330 | 784 ft | 142 kts | 166° |
| 2026-05-09 12:23 | 41.28417 | -8.69075 | 628 ft | 139 kts | 166° |
| 2026-05-09 12:24 | 41.27480 | -8.68828 | 432 ft | 139 kts | 165° |
| 2026-05-09 12:24 | 41.26536 | -8.68589 | 291 ft | 137 kts | 165° |
| 2026-05-09 12:24 | 41.25628 | -8.68349 | 178 ft | 124 kts | 165° |
| 2026-05-09 12:24 | 41.24939 | -8.68160 | 195 ft | 69 kts | 168° |
| 2026-05-09 12:25 | 41.24537 | -8.68052 | 209 ft | 57 kts | 169° |
| 2026-05-09 12:25 | 41.24165 | -8.67956 | 217 ft | 52 kts | 169° |
| 2026-05-09 12:25 | 41.23955 | -8.67902 | 223 ft | 15 kts | 168° |
| 2026-05-09 12:25 | 41.23895 | -8.67845 | 224 ft | 11 kts | 105° |
| 2026-05-09 12:26 | 41.23904 | -8.67741 | 227 ft | 10 kts | 79° |
| 2026-05-09 12:26 | 41.23913 | -8.67670 | 232 ft | 6 kts | 79° |
| 2026-05-09 12:26 | 41.23921 | -8.67623 | 237 ft | 5 kts | 78° |
| 2026-05-09 12:26 | 41.23930 | -8.67564 | 238 ft | 8 kts | 81° |
| 2026-05-09 12:27 | 41.23906 | -8.67498 | 240 ft | 7 kts | 156° |
| 2026-05-09 12:27 | 41.23862 | -8.67476 | 242 ft | 3 kts | 117° |
| 2026-05-09 12:27 | 41.23861 | -8.67440 | 244 ft | 5 kts | 80° |
| 2026-05-09 12:27 | 41.23868 | -8.67400 | 246 ft | 4 kts | 79° |
| 2026-05-09 12:28 | 41.23869 | -8.67391 | 246 ft | 0 kts | 79° |
| 2026-05-09 12:30 | 41.23869 | -8.67392 | 246 ft | 0 kts | 78° |